createdAt,value
2022-11-14T00:01:41.081Z,1019.5
2022-11-14T00:06:47.061Z,1019.5
2022-11-14T00:11:53.198Z,1019.4
2022-11-14T00:16:59.230Z,1019.4
2022-11-14T00:22:05.313Z,1019.4
2022-11-14T00:27:11.470Z,1019.2
2022-11-14T00:32:17.634Z,1019.2
2022-11-14T00:37:23.767Z,1019.1
2022-11-14T00:42:29.935Z,1019.2
2022-11-14T00:47:36.066Z,1019.1
2022-11-14T00:52:42.351Z,1019.1
2022-11-14T00:57:48.434Z,1019
2022-11-14T01:02:54.654Z,1018.9
2022-11-14T01:08:00.775Z,1018.9
2022-11-14T01:13:06.875Z,1018.9
2022-11-14T01:18:13.006Z,1018.7
2022-11-14T01:23:19.138Z,1018.7
2022-11-14T01:28:25.293Z,1018.6
2022-11-14T01:33:31.572Z,1018.5
2022-11-14T01:38:37.827Z,1018.5
2022-11-14T01:43:44.091Z,1018.5
2022-11-14T01:48:50.359Z,1018.5
2022-11-14T01:53:56.719Z,1018.4
2022-11-14T01:59:02.899Z,1018.4
2022-11-14T02:04:09.177Z,1018.4
2022-11-14T02:09:15.426Z,1018.3
2022-11-14T02:14:21.684Z,1018.2
2022-11-14T02:19:27.948Z,1018.1
2022-11-14T02:24:34.267Z,1018.2
2022-11-14T02:29:40.555Z,1018
2022-11-14T02:34:46.740Z,1017.9
2022-11-14T02:39:53.263Z,1018
2022-11-14T02:44:59.692Z,1017.9
2022-11-14T02:50:06.166Z,1017.8
2022-11-14T02:55:12.646Z,1017.8
2022-11-14T03:00:19.205Z,1017.7
2022-11-14T03:05:25.664Z,1017.6
2022-11-14T03:10:32.086Z,1017.6
2022-11-14T03:15:38.527Z,1017.5
2022-11-14T03:20:45.067Z,1017.6
2022-11-14T03:25:51.492Z,1017.5
2022-11-14T03:30:57.939Z,1017.4
2022-11-14T03:36:04.411Z,1017.4
2022-11-14T03:41:10.881Z,1017.3
2022-11-14T03:46:17.962Z,1017.3
2022-11-14T03:51:24.933Z,1017.1
2022-11-14T03:56:31.908Z,1017.1
2022-11-14T04:01:38.913Z,1017.1
2022-11-14T04:06:46.022Z,1017.1
2022-11-14T04:11:52.983Z,1017
2022-11-14T04:17:00.015Z,1017
2022-11-14T04:22:06.941Z,1017
2022-11-14T04:27:13.957Z,1017
2022-11-14T04:32:20.957Z,1017
2022-11-14T04:37:27.956Z,1016.9
2022-11-14T04:42:35.042Z,1016.8
2022-11-14T04:47:41.963Z,1016.8
2022-11-14T04:52:49.897Z,1016.8
2022-11-14T04:57:57.643Z,1016.8
2022-11-14T05:03:05.542Z,1016.7
2022-11-14T05:08:13.344Z,1016.7
2022-11-14T05:13:21.134Z,1016.6
2022-11-14T05:18:29.110Z,1016.7
2022-11-14T05:23:36.943Z,1016.7
2022-11-14T05:28:44.632Z,1016.6
2022-11-14T05:33:52.599Z,1016.6
2022-11-14T05:39:00.284Z,1016.6
2022-11-14T05:44:08.154Z,1016.5
2022-11-14T05:49:15.950Z,1016.4
2022-11-14T05:54:23.767Z,1016.5
2022-11-14T05:59:31.591Z,1016.4
2022-11-14T06:04:39.430Z,1016.5
2022-11-14T06:09:47.260Z,1016.6
2022-11-14T06:14:55.114Z,1016.5
2022-11-14T06:20:02.918Z,1016.5
2022-11-14T06:25:10.767Z,1016.5
2022-11-14T06:30:18.570Z,1016.6
2022-11-14T06:35:26.405Z,1016.5
2022-11-14T06:40:34.233Z,1016.5
2022-11-14T06:45:42.063Z,1016.6
2022-11-14T06:50:49.942Z,1016.6
2022-11-14T06:55:57.721Z,1016.6
2022-11-14T07:01:05.604Z,1016.6
2022-11-14T07:06:13.583Z,1016.7
2022-11-14T07:11:21.300Z,1017.4
2022-11-14T07:16:29.078Z,1016.8
2022-11-14T07:21:36.887Z,1016.7
2022-11-14T07:26:43.327Z,1017
2022-11-14T07:31:49.506Z,1017.1
2022-11-14T07:36:55.450Z,1016.7
2022-11-14T07:42:01.542Z,1016.6
2022-11-14T07:47:07.628Z,1016.6
2022-11-14T07:52:13.725Z,1016.5
2022-11-14T07:57:19.804Z,1016.5
2022-11-14T08:02:26.027Z,1016.5
2022-11-14T08:07:32.171Z,1016.3
2022-11-14T08:12:38.080Z,1016.5
2022-11-14T08:17:44.308Z,1016.5
2022-11-14T08:22:50.264Z,1016.4
2022-11-14T08:27:56.469Z,1016.8
2022-11-14T08:33:02.497Z,1016.7
2022-11-14T08:38:08.672Z,1016.6
2022-11-14T08:43:14.667Z,1016.6
2022-11-14T08:48:20.759Z,1016.3
2022-11-14T08:53:26.882Z,1016.3
2022-11-14T08:58:32.915Z,1016.2
2022-11-14T09:03:39.162Z,1016.6
2022-11-14T09:08:45.088Z,1016.5
2022-11-14T09:13:51.172Z,1016.4
2022-11-14T09:18:57.266Z,1016.4
2022-11-14T09:24:03.530Z,1016.1
2022-11-14T09:29:09.455Z,1016.4
2022-11-14T09:34:15.606Z,1016.1
2022-11-14T09:39:21.924Z,1016.1
2022-11-14T09:44:27.978Z,1016.1
2022-11-14T09:49:34.073Z,1016.1
2022-11-14T09:54:40.235Z,1015.9
2022-11-14T09:59:46.395Z,1015.8
2022-11-14T10:04:52.532Z,1015.7
2022-11-14T10:09:58.675Z,1015.8
2022-11-14T10:15:04.895Z,1015.8
2022-11-14T10:20:10.993Z,1015.7
2022-11-14T10:25:17.125Z,1015.5
2022-11-14T10:30:23.284Z,1015.5
2022-11-14T10:35:29.431Z,1015.5
2022-11-14T10:40:35.702Z,1015.6
2022-11-14T10:45:41.970Z,1015.7
2022-11-14T10:50:48.230Z,1015.7
2022-11-14T10:55:54.510Z,1015.2
2022-11-14T11:00:59.735Z,1015.5
2022-11-14T11:06:05.828Z,1015.5
2022-11-14T11:11:11.917Z,1015.5
2022-11-14T11:16:18.006Z,1015.4
2022-11-14T11:21:24.105Z,1015.4
2022-11-14T11:26:30.193Z,1015.2
2022-11-14T11:31:36.283Z,1015.1
2022-11-14T11:36:42.381Z,1015
2022-11-14T11:41:48.463Z,1015
2022-11-14T11:46:54.750Z,1015
2022-11-14T11:51:59.658Z,1015.1
2022-11-14T11:57:05.796Z,1014.8
2022-11-14T12:02:11.844Z,1014.5
2022-11-14T12:07:17.935Z,1014.5
2022-11-14T12:12:24.023Z,1014.5
2022-11-14T12:17:30.121Z,1014.6
2022-11-14T12:22:36.210Z,1014.5
2022-11-14T12:27:42.310Z,1014.5
2022-11-14T12:32:48.399Z,1014.6
2022-11-14T12:37:54.477Z,1014.5
2022-11-14T12:43:00.578Z,1014.6
2022-11-14T12:48:06.672Z,1014.5
2022-11-14T12:53:12.758Z,1014.4
2022-11-14T13:03:24.929Z,1014.4
2022-11-14T13:08:31.060Z,1014.4
2022-11-14T13:13:37.173Z,1014.3
2022-11-14T13:18:43.294Z,1014.2
2022-11-14T13:23:49.301Z,1014.3
2022-11-14T13:34:01.555Z,1014.2
2022-11-14T13:39:07.691Z,1014.1
2022-11-14T13:44:13.669Z,1014.1
2022-11-14T13:49:19.776Z,1014
2022-11-14T13:54:24.878Z,1014
2022-11-14T13:59:30.974Z,1014
2022-11-14T14:04:37.063Z,1014
2022-11-14T14:09:43.157Z,1013.9
2022-11-14T14:14:49.240Z,1013.9
2022-11-14T14:19:55.344Z,1013.9
2022-11-14T14:25:01.434Z,1013.7
2022-11-14T14:30:07.518Z,1013.7
2022-11-14T14:35:13.643Z,1013.7
2022-11-14T14:40:19.700Z,1013.6
2022-11-14T14:45:25.787Z,1013.6
2022-11-14T14:50:31.885Z,1013.5
2022-11-14T14:55:37.981Z,1013.4
2022-11-14T15:05:50.177Z,1013.3
2022-11-14T15:10:56.258Z,1013.3
2022-11-14T15:16:02.341Z,1013.3
2022-11-14T15:26:14.525Z,1013.2
2022-11-14T15:31:20.611Z,1013.2
2022-11-14T15:36:26.818Z,1013.2
2022-11-14T15:41:32.853Z,1013.2
2022-11-14T15:46:39.060Z,1013.1
2022-11-14T15:51:45.163Z,1013.1
2022-11-14T15:56:51.075Z,1013
2022-11-14T16:01:57.212Z,1012.9
2022-11-14T16:07:03.370Z,1012.9
2022-11-14T16:12:09.533Z,1012.9
2022-11-14T16:17:15.674Z,1012.9
2022-11-14T16:22:21.830Z,1012.9
2022-11-14T16:27:27.055Z,1012.9
2022-11-14T16:32:33.077Z,1013
2022-11-14T16:37:39.172Z,1013.1
2022-11-14T16:42:45.270Z,1013.1
2022-11-14T16:47:51.350Z,1012.9
2022-11-14T16:52:57.646Z,1012.9
2022-11-14T16:58:03.538Z,1012.8
2022-11-14T17:03:09.634Z,1012.8
2022-11-14T17:08:15.711Z,1012.8
2022-11-14T17:13:21.809Z,1012.9
2022-11-14T17:18:27.896Z,1012.9
2022-11-14T17:23:33.986Z,1012.9
2022-11-14T17:28:40.083Z,1012.9
2022-11-14T17:33:46.198Z,1012.8
2022-11-14T17:38:52.291Z,1012.8
2022-11-14T17:43:58.381Z,1012.8
2022-11-14T17:49:04.462Z,1012.8
2022-11-14T17:54:10.537Z,1012.6
2022-11-14T17:59:16.624Z,1012.7
2022-11-14T18:04:22.714Z,1012.7
2022-11-14T18:09:28.808Z,1012.7
2022-11-14T18:14:35.050Z,1012.7
2022-11-14T18:19:40.975Z,1012.7
2022-11-14T18:24:47.082Z,1012.6
2022-11-14T18:29:53.155Z,1012.5
2022-11-14T18:34:59.327Z,1012.4
2022-11-14T18:40:05.472Z,1012.2
2022-11-14T18:45:11.634Z,1012.2
2022-11-14T18:50:17.775Z,1012.3
2022-11-14T18:55:23.938Z,1012.2
2022-11-14T19:00:30.083Z,1012.2
2022-11-14T19:05:36.298Z,1012.2
2022-11-14T19:10:42.423Z,1012.3
2022-11-14T19:15:48.609Z,1012.2
2022-11-14T19:20:54.709Z,1012.1
2022-11-14T19:25:59.859Z,1012.1
2022-11-14T19:31:05.946Z,1012.1
2022-11-14T19:36:12.121Z,1012.1
2022-11-14T19:41:18.129Z,1012
2022-11-14T19:46:24.227Z,1011.8
2022-11-14T19:51:30.315Z,1011.8
2022-11-14T19:56:35.449Z,1011.8
2022-11-14T20:01:41.514Z,1011.9
2022-11-14T20:06:47.604Z,1011.7
2022-11-14T20:11:53.691Z,1011.7
2022-11-14T20:22:05.887Z,1011.8
2022-11-14T20:27:11.960Z,1011.9
2022-11-14T20:32:18.070Z,1011.9
2022-11-14T20:37:24.207Z,1011.8
2022-11-14T20:42:30.257Z,1011.8
2022-11-14T20:47:36.372Z,1011.8
2022-11-14T20:52:42.415Z,1011.8
2022-11-14T20:57:48.505Z,1011.8
2022-11-14T21:02:54.606Z,1011.7
2022-11-14T21:08:00.693Z,1011.7
2022-11-14T21:13:06.784Z,1011.6
2022-11-14T21:18:12.871Z,1011.6
2022-11-14T21:23:19.010Z,1011.6
2022-11-14T21:28:25.056Z,1011.6
2022-11-14T21:33:31.154Z,1011.5
2022-11-14T21:43:43.327Z,1011.4
2022-11-14T21:53:55.540Z,1011.4
2022-11-14T21:59:01.595Z,1011.4
2022-11-14T22:04:07.692Z,1011.3
2022-11-14T22:09:13.837Z,1011.2
2022-11-14T22:14:19.888Z,1011.1
2022-11-14T22:19:26.057Z,1011.2
2022-11-14T22:24:32.143Z,1011.2
2022-11-14T22:29:38.318Z,1011.1
2022-11-14T22:34:44.237Z,1011.2
2022-11-14T22:39:50.351Z,1011.2
2022-11-14T22:44:56.407Z,1011.1
2022-11-14T22:50:02.514Z,1011.1
2022-11-14T22:55:08.596Z,1011.2
2022-11-14T23:05:20.851Z,1011
2022-11-14T23:10:27.021Z,1011.1
2022-11-14T23:15:33.229Z,1010.9
2022-11-14T23:20:39.307Z,1011.1
2022-11-14T23:25:45.452Z,1011
2022-11-14T23:30:51.611Z,1010.9
2022-11-14T23:35:57.752Z,1011
2022-11-14T23:41:03.912Z,1010.8
2022-11-14T23:46:10.090Z,1010.8
2022-11-14T23:51:16.216Z,1010.7
2022-11-14T23:56:22.368Z,1010.7
